sensor_id;sensor_type;location;lat;lon;timestamp;P1;durP1;ratioP1;P2;durP2;ratioP2
51499;SDS011;39101;53.478;6.158;2022-10-16T00:01:34;10.23;;;1.70;;
51499;SDS011;39101;53.478;6.158;2022-10-16T00:04:00;8.73;;;1.83;;
51499;SDS011;39101;53.478;6.158;2022-10-16T00:06:27;8.27;;;2.05;;
51499;SDS011;39101;53.478;6.158;2022-10-16T00:08:54;8.85;;;1.90;;
51499;SDS011;39101;53.478;6.158;2022-10-16T00:11:21;8.02;;;2.20;;
51499;SDS011;39101;53.478;6.158;2022-10-16T00:13:51;8.55;;;1.80;;
51499;SDS011;39101;53.478;6.158;2022-10-16T00:16:21;10.20;;;1.98;;
51499;SDS011;39101;53.478;6.158;2022-10-16T00:18:47;8.55;;;1.77;;
51499;SDS011;39101;53.478;6.158;2022-10-16T00:21:15;11.68;;;1.75;;
51499;SDS011;39101;53.478;6.158;2022-10-16T00:23:43;10.18;;;1.90;;
51499;SDS011;39101;53.478;6.158;2022-10-16T00:26:11;8.23;;;1.73;;
51499;SDS011;39101;53.478;6.158;2022-10-16T00:28:38;10.27;;;1.95;;
51499;SDS011;39101;53.478;6.158;2022-10-16T00:31:08;9.38;;;1.50;;
51499;SDS011;39101;53.478;6.158;2022-10-16T00:33:36;6.80;;;1.67;;
51499;SDS011;39101;53.478;6.158;2022-10-16T00:36:04;8.35;;;1.45;;
51499;SDS011;39101;53.478;6.158;2022-10-16T00:38:31;10.43;;;1.70;;
51499;SDS011;39101;53.478;6.158;2022-10-16T00:40:57;8.32;;;1.80;;
51499;SDS011;39101;53.478;6.158;2022-10-16T00:48:44;8.45;;;1.35;;
51499;SDS011;39101;53.478;6.158;2022-10-16T00:51:15;7.07;;;1.40;;
51499;SDS011;39101;53.478;6.158;2022-10-16T00:53:43;8.70;;;1.50;;
51499;SDS011;39101;53.478;6.158;2022-10-16T00:56:09;9.68;;;1.60;;
51499;SDS011;39101;53.478;6.158;2022-10-16T00:58:35;7.72;;;2.13;;
51499;SDS011;39101;53.478;6.158;2022-10-16T01:01:01;9.32;;;2.35;;
51499;SDS011;39101;53.478;6.158;2022-10-16T01:03:29;6.78;;;1.42;;
51499;SDS011;39101;53.478;6.158;2022-10-16T01:06:07;8.60;;;1.85;;
51499;SDS011;39101;53.478;6.158;2022-10-16T01:14:11;4.40;;;1.27;;
51499;SDS011;39101;53.478;6.158;2022-10-16T01:16:55;8.00;;;1.55;;
51499;SDS011;39101;53.478;6.158;2022-10-16T01:19:44;4.55;;;1.48;;
51499;SDS011;39101;53.478;6.158;2022-10-16T01:22:37;8.55;;;1.83;;
51499;SDS011;39101;53.478;6.158;2022-10-16T01:25:44;7.22;;;1.90;;
51499;SDS011;39101;53.478;6.158;2022-10-16T01:28:19;8.50;;;2.20;;
51499;SDS011;39101;53.478;6.158;2022-10-16T01:30:50;8.07;;;2.00;;
51499;SDS011;39101;53.478;6.158;2022-10-16T01:33:23;5.63;;;1.20;;
51499;SDS011;39101;53.478;6.158;2022-10-16T01:35:54;7.80;;;1.60;;
51499;SDS011;39101;53.478;6.158;2022-10-16T01:38:36;11.82;;;2.05;;
51499;SDS011;39101;53.478;6.158;2022-10-16T01:41:12;9.40;;;1.50;;
51499;SDS011;39101;53.478;6.158;2022-10-16T01:43:40;6.50;;;2.08;;
51499;SDS011;39101;53.478;6.158;2022-10-16T01:46:13;6.20;;;1.20;;
51499;SDS011;39101;53.478;6.158;2022-10-16T01:48:42;4.72;;;1.50;;
51499;SDS011;39101;53.478;6.158;2022-10-16T01:51:14;4.78;;;1.20;;
51499;SDS011;39101;53.478;6.158;2022-10-16T01:53:43;4.20;;;1.70;;
51499;SDS011;39101;53.478;6.158;2022-10-16T01:56:16;6.80;;;1.50;;
51499;SDS011;39101;53.478;6.158;2022-10-16T01:58:50;6.85;;;1.70;;
51499;SDS011;39101;53.478;6.158;2022-10-16T02:01:24;5.38;;;1.30;;
51499;SDS011;39101;53.478;6.158;2022-10-16T02:03:54;7.80;;;1.40;;
51499;SDS011;39101;53.478;6.158;2022-10-16T02:06:22;8.32;;;1.48;;
51499;SDS011;39101;53.478;6.158;2022-10-16T02:08:48;5.10;;;1.55;;
51499;SDS011;39101;53.478;6.158;2022-10-16T02:11:14;4.18;;;1.30;;
51499;SDS011;39101;53.478;6.158;2022-10-16T02:13:53;6.15;;;1.50;;
51499;SDS011;39101;53.478;6.158;2022-10-16T02:16:36;4.93;;;1.45;;
51499;SDS011;39101;53.478;6.158;2022-10-16T02:19:09;7.43;;;1.70;;
51499;SDS011;39101;53.478;6.158;2022-10-16T02:27:22;5.85;;;1.60;;
51499;SDS011;39101;53.478;6.158;2022-10-16T02:30:19;8.07;;;1.63;;
51499;SDS011;39101;53.478;6.158;2022-10-16T02:32:52;10.30;;;1.90;;
51499;SDS011;39101;53.478;6.158;2022-10-16T02:35:21;4.63;;;1.60;;
51499;SDS011;39101;53.478;6.158;2022-10-16T02:37:48;6.00;;;1.42;;
51499;SDS011;39101;53.478;6.158;2022-10-16T02:40:16;7.63;;;1.45;;
51499;SDS011;39101;53.478;6.158;2022-10-16T02:42:43;7.72;;;1.73;;
51499;SDS011;39101;53.478;6.158;2022-10-16T02:45:10;8.68;;;1.55;;
51499;SDS011;39101;53.478;6.158;2022-10-16T02:47:36;6.53;;;1.63;;
51499;SDS011;39101;53.478;6.158;2022-10-16T02:50:02;8.95;;;1.88;;
51499;SDS011;39101;53.478;6.158;2022-10-16T02:52:28;8.75;;;2.17;;
51499;SDS011;39101;53.478;6.158;2022-10-16T02:54:54;7.32;;;1.63;;
51499;SDS011;39101;53.478;6.158;2022-10-16T02:57:19;6.18;;;1.90;;
51499;SDS011;39101;53.478;6.158;2022-10-16T02:59:45;5.70;;;1.83;;
51499;SDS011;39101;53.478;6.158;2022-10-16T03:02:11;6.10;;;1.50;;
51499;SDS011;39101;53.478;6.158;2022-10-16T03:04:37;8.32;;;2.33;;
51499;SDS011;39101;53.478;6.158;2022-10-16T03:07:03;7.72;;;1.95;;
51499;SDS011;39101;53.478;6.158;2022-10-16T03:09:29;6.15;;;1.73;;
51499;SDS011;39101;53.478;6.158;2022-10-16T03:11:54;7.38;;;1.60;;
51499;SDS011;39101;53.478;6.158;2022-10-16T03:14:20;4.68;;;2.08;;
51499;SDS011;39101;53.478;6.158;2022-10-16T03:16:46;6.97;;;2.17;;
51499;SDS011;39101;53.478;6.158;2022-10-16T03:19:11;10.13;;;2.55;;
51499;SDS011;39101;53.478;6.158;2022-10-16T03:21:37;12.57;;;2.50;;
51499;SDS011;39101;53.478;6.158;2022-10-16T03:24:03;9.02;;;3.10;;
51499;SDS011;39101;53.478;6.158;2022-10-16T03:26:29;4.85;;;2.20;;
51499;SDS011;39101;53.478;6.158;2022-10-16T03:28:54;8.98;;;3.00;;
51499;SDS011;39101;53.478;6.158;2022-10-16T03:31:20;6.43;;;2.25;;
51499;SDS011;39101;53.478;6.158;2022-10-16T03:33:45;6.13;;;2.20;;
51499;SDS011;39101;53.478;6.158;2022-10-16T03:36:11;5.78;;;1.75;;
51499;SDS011;39101;53.478;6.158;2022-10-16T03:38:37;8.77;;;2.15;;
51499;SDS011;39101;53.478;6.158;2022-10-16T03:41:02;10.75;;;2.70;;
51499;SDS011;39101;53.478;6.158;2022-10-16T03:43:29;5.30;;;2.15;;
51499;SDS011;39101;53.478;6.158;2022-10-16T03:45:54;8.73;;;2.22;;
51499;SDS011;39101;53.478;6.158;2022-10-16T03:48:20;5.45;;;2.72;;
51499;SDS011;39101;53.478;6.158;2022-10-16T03:50:45;6.63;;;3.35;;
51499;SDS011;39101;53.478;6.158;2022-10-16T03:53:13;5.40;;;2.20;;
51499;SDS011;39101;53.478;6.158;2022-10-16T03:55:41;6.95;;;2.38;;
51499;SDS011;39101;53.478;6.158;2022-10-16T03:58:07;9.90;;;2.70;;
51499;SDS011;39101;53.478;6.158;2022-10-16T04:00:33;8.65;;;2.45;;
51499;SDS011;39101;53.478;6.158;2022-10-16T04:02:59;7.15;;;2.30;;
51499;SDS011;39101;53.478;6.158;2022-10-16T04:05:26;7.55;;;2.30;;
51499;SDS011;39101;53.478;6.158;2022-10-16T04:07:51;4.82;;;2.10;;
51499;SDS011;39101;53.478;6.158;2022-10-16T04:10:17;9.25;;;2.83;;
51499;SDS011;39101;53.478;6.158;2022-10-16T04:12:44;9.70;;;2.00;;
51499;SDS011;39101;53.478;6.158;2022-10-16T04:15:09;8.32;;;2.55;;
51499;SDS011;39101;53.478;6.158;2022-10-16T04:17:35;6.25;;;2.17;;
51499;SDS011;39101;53.478;6.158;2022-10-16T04:20:01;5.22;;;2.10;;
51499;SDS011;39101;53.478;6.158;2022-10-16T04:22:27;7.90;;;2.22;;
51499;SDS011;39101;53.478;6.158;2022-10-16T04:24:53;6.38;;;1.85;;
51499;SDS011;39101;53.478;6.158;2022-10-16T04:27:18;5.30;;;1.75;;
51499;SDS011;39101;53.478;6.158;2022-10-16T04:29:44;7.32;;;1.83;;
51499;SDS011;39101;53.478;6.158;2022-10-16T04:32:09;6.45;;;1.80;;
51499;SDS011;39101;53.478;6.158;2022-10-16T04:34:35;4.90;;;1.85;;
51499;SDS011;39101;53.478;6.158;2022-10-16T04:37:01;5.60;;;1.70;;
51499;SDS011;39101;53.478;6.158;2022-10-16T04:39:27;6.05;;;1.85;;
51499;SDS011;39101;53.478;6.158;2022-10-16T04:41:52;5.90;;;1.65;;
51499;SDS011;39101;53.478;6.158;2022-10-16T04:44:18;3.80;;;1.50;;
51499;SDS011;39101;53.478;6.158;2022-10-16T04:46:47;8.27;;;1.75;;
51499;SDS011;39101;53.478;6.158;2022-10-16T04:49:15;6.95;;;1.70;;
51499;SDS011;39101;53.478;6.158;2022-10-16T04:51:40;8.35;;;1.80;;
51499;SDS011;39101;53.478;6.158;2022-10-16T04:54:06;9.45;;;2.60;;
51499;SDS011;39101;53.478;6.158;2022-10-16T04:56:32;7.22;;;1.45;;
51499;SDS011;39101;53.478;6.158;2022-10-16T04:58:57;7.70;;;1.70;;
51499;SDS011;39101;53.478;6.158;2022-10-16T05:01:23;5.88;;;1.50;;
51499;SDS011;39101;53.478;6.158;2022-10-16T05:03:48;4.78;;;1.40;;
51499;SDS011;39101;53.478;6.158;2022-10-16T05:06:14;8.15;;;3.17;;
51499;SDS011;39101;53.478;6.158;2022-10-16T05:08:40;3.55;;;1.35;;
51499;SDS011;39101;53.478;6.158;2022-10-16T05:11:05;7.60;;;1.73;;
51499;SDS011;39101;53.478;6.158;2022-10-16T05:13:31;6.30;;;1.80;;
51499;SDS011;39101;53.478;6.158;2022-10-16T05:15:57;8.30;;;2.17;;
51499;SDS011;39101;53.478;6.158;2022-10-16T05:18:22;10.65;;;1.70;;
51499;SDS011;39101;53.478;6.158;2022-10-16T05:20:48;6.88;;;1.80;;
51499;SDS011;39101;53.478;6.158;2022-10-16T05:23:14;4.53;;;1.42;;
51499;SDS011;39101;53.478;6.158;2022-10-16T05:25:39;5.60;;;1.83;;
51499;SDS011;39101;53.478;6.158;2022-10-16T05:28:05;7.18;;;1.45;;
51499;SDS011;39101;53.478;6.158;2022-10-16T05:30:30;7.15;;;1.90;;
51499;SDS011;39101;53.478;6.158;2022-10-16T05:32:56;7.40;;;1.67;;
51499;SDS011;39101;53.478;6.158;2022-10-16T05:35:22;6.63;;;1.77;;
51499;SDS011;39101;53.478;6.158;2022-10-16T05:37:47;8.00;;;2.05;;
51499;SDS011;39101;53.478;6.158;2022-10-16T05:40:13;5.13;;;1.88;;
51499;SDS011;39101;53.478;6.158;2022-10-16T05:42:40;9.57;;;1.40;;
51499;SDS011;39101;53.478;6.158;2022-10-16T05:45:06;4.68;;;1.60;;
51499;SDS011;39101;53.478;6.158;2022-10-16T05:47:34;5.93;;;1.70;;
51499;SDS011;39101;53.478;6.158;2022-10-16T05:49:59;10.63;;;1.80;;
51499;SDS011;39101;53.478;6.158;2022-10-16T05:52:26;7.30;;;1.73;;
51499;SDS011;39101;53.478;6.158;2022-10-16T05:54:52;6.57;;;1.92;;
51499;SDS011;39101;53.478;6.158;2022-10-16T05:57:17;4.65;;;1.98;;
51499;SDS011;39101;53.478;6.158;2022-10-16T05:59:43;6.25;;;1.92;;
51499;SDS011;39101;53.478;6.158;2022-10-16T06:02:12;8.40;;;2.00;;
51499;SDS011;39101;53.478;6.158;2022-10-16T06:04:38;7.65;;;2.03;;
51499;SDS011;39101;53.478;6.158;2022-10-16T06:07:04;6.25;;;2.28;;
51499;SDS011;39101;53.478;6.158;2022-10-16T06:09:30;5.00;;;2.30;;
51499;SDS011;39101;53.478;6.158;2022-10-16T06:11:55;6.45;;;2.75;;
51499;SDS011;39101;53.478;6.158;2022-10-16T06:14:21;7.43;;;2.45;;
51499;SDS011;39101;53.478;6.158;2022-10-16T06:16:47;6.80;;;2.50;;
51499;SDS011;39101;53.478;6.158;2022-10-16T06:19:12;7.28;;;2.70;;
51499;SDS011;39101;53.478;6.158;2022-10-16T06:21:38;7.75;;;3.17;;
51499;SDS011;39101;53.478;6.158;2022-10-16T06:24:03;5.78;;;2.80;;
51499;SDS011;39101;53.478;6.158;2022-10-16T06:26:29;9.05;;;3.55;;
51499;SDS011;39101;53.478;6.158;2022-10-16T06:28:56;9.63;;;2.78;;
51499;SDS011;39101;53.478;6.158;2022-10-16T06:31:23;5.85;;;2.78;;
51499;SDS011;39101;53.478;6.158;2022-10-16T06:33:52;8.52;;;2.83;;
51499;SDS011;39101;53.478;6.158;2022-10-16T06:36:18;9.93;;;2.78;;
51499;SDS011;39101;53.478;6.158;2022-10-16T06:38:45;6.00;;;3.10;;
51499;SDS011;39101;53.478;6.158;2022-10-16T06:41:14;7.93;;;2.70;;
51499;SDS011;39101;53.478;6.158;2022-10-16T06:43:41;8.38;;;2.42;;
51499;SDS011;39101;53.478;6.158;2022-10-16T06:46:10;8.23;;;2.72;;
51499;SDS011;39101;53.478;6.158;2022-10-16T06:48:37;8.43;;;2.38;;
51499;SDS011;39101;53.478;6.158;2022-10-16T06:51:04;9.93;;;2.85;;
51499;SDS011;39101;53.478;6.158;2022-10-16T06:53:30;7.55;;;3.40;;
51499;SDS011;39101;53.478;6.158;2022-10-16T06:55:57;7.43;;;3.28;;
51499;SDS011;39101;53.478;6.158;2022-10-16T06:58:31;9.63;;;2.75;;
51499;SDS011;39101;53.478;6.158;2022-10-16T07:00:56;8.27;;;2.40;;
51499;SDS011;39101;53.478;6.158;2022-10-16T07:03:22;8.23;;;2.65;;
51499;SDS011;39101;53.478;6.158;2022-10-16T07:05:48;9.48;;;2.45;;
51499;SDS011;39101;53.478;6.158;2022-10-16T07:08:13;5.97;;;2.20;;
51499;SDS011;39101;53.478;6.158;2022-10-16T07:10:39;6.88;;;2.47;;
51499;SDS011;39101;53.478;6.158;2022-10-16T07:13:04;7.30;;;2.60;;
51499;SDS011;39101;53.478;6.158;2022-10-16T07:15:32;9.38;;;2.63;;
51499;SDS011;39101;53.478;6.158;2022-10-16T07:17:58;6.78;;;2.35;;
51499;SDS011;39101;53.478;6.158;2022-10-16T07:20:24;10.02;;;3.15;;
51499;SDS011;39101;53.478;6.158;2022-10-16T07:22:49;10.10;;;2.67;;
51499;SDS011;39101;53.478;6.158;2022-10-16T07:25:16;10.00;;;2.72;;
51499;SDS011;39101;53.478;6.158;2022-10-16T07:27:42;7.90;;;2.38;;
51499;SDS011;39101;53.478;6.158;2022-10-16T07:30:08;7.45;;;1.90;;
51499;SDS011;39101;53.478;6.158;2022-10-16T07:32:34;7.20;;;2.50;;
51499;SDS011;39101;53.478;6.158;2022-10-16T07:34:59;11.60;;;2.13;;
51499;SDS011;39101;53.478;6.158;2022-10-16T07:37:25;7.65;;;2.10;;
51499;SDS011;39101;53.478;6.158;2022-10-16T07:39:51;10.15;;;2.50;;
51499;SDS011;39101;53.478;6.158;2022-10-16T07:42:16;7.60;;;2.13;;
51499;SDS011;39101;53.478;6.158;2022-10-16T07:44:42;7.10;;;1.98;;
51499;SDS011;39101;53.478;6.158;2022-10-16T07:47:09;7.38;;;1.75;;
51499;SDS011;39101;53.478;6.158;2022-10-16T07:49:34;17.05;;;2.53;;
51499;SDS011;39101;53.478;6.158;2022-10-16T07:52:00;7.55;;;2.42;;
51499;SDS011;39101;53.478;6.158;2022-10-16T07:54:26;4.10;;;1.92;;
51499;SDS011;39101;53.478;6.158;2022-10-16T07:56:51;10.68;;;2.00;;
51499;SDS011;39101;53.478;6.158;2022-10-16T07:59:17;8.00;;;2.20;;
51499;SDS011;39101;53.478;6.158;2022-10-16T08:01:43;6.10;;;3.22;;
51499;SDS011;39101;53.478;6.158;2022-10-16T08:04:09;6.57;;;2.05;;
51499;SDS011;39101;53.478;6.158;2022-10-16T08:06:36;5.45;;;2.70;;
51499;SDS011;39101;53.478;6.158;2022-10-16T08:09:03;9.88;;;2.50;;
51499;SDS011;39101;53.478;6.158;2022-10-16T08:11:30;9.50;;;2.38;;
51499;SDS011;39101;53.478;6.158;2022-10-16T08:13:55;6.97;;;2.45;;
51499;SDS011;39101;53.478;6.158;2022-10-16T08:16:21;8.25;;;2.22;;
51499;SDS011;39101;53.478;6.158;2022-10-16T08:18:47;5.68;;;2.28;;
51499;SDS011;39101;53.478;6.158;2022-10-16T08:21:15;5.60;;;2.20;;
51499;SDS011;39101;53.478;6.158;2022-10-16T08:23:41;6.53;;;2.40;;
51499;SDS011;39101;53.478;6.158;2022-10-16T08:26:08;8.65;;;2.63;;
51499;SDS011;39101;53.478;6.158;2022-10-16T08:28:34;8.82;;;2.88;;
51499;SDS011;39101;53.478;6.158;2022-10-16T08:31:14;6.40;;;3.10;;
51499;SDS011;39101;53.478;6.158;2022-10-16T08:33:41;6.55;;;2.58;;
51499;SDS011;39101;53.478;6.158;2022-10-16T08:36:08;9.82;;;2.95;;
51499;SDS011;39101;53.478;6.158;2022-10-16T08:38:35;7.78;;;2.63;;
51499;SDS011;39101;53.478;6.158;2022-10-16T08:49:12;8.55;;;2.25;;
51499;SDS011;39101;53.478;6.158;2022-10-16T08:51:40;13.63;;;3.53;;
51499;SDS011;39101;53.478;6.158;2022-10-16T08:54:49;11.45;;;2.35;;
51499;SDS011;39101;53.478;6.158;2022-10-16T08:57:00;6.90;;;2.70;;
51499;SDS011;39101;53.478;6.158;2022-10-16T08:59:36;8.13;;;2.63;;
51499;SDS011;39101;53.478;6.158;2022-10-16T09:02:02;9.73;;;2.33;;
51499;SDS011;39101;53.478;6.158;2022-10-16T09:07:28;13.30;;;2.65;;
51499;SDS011;39101;53.478;6.158;2022-10-16T09:21:23;16.92;;;2.78;;
51499;SDS011;39101;53.478;6.158;2022-10-16T09:23:52;8.82;;;2.08;;
51499;SDS011;39101;53.478;6.158;2022-10-16T09:26:22;14.15;;;3.20;;
51499;SDS011;39101;53.478;6.158;2022-10-16T09:28:47;12.57;;;2.53;;
51499;SDS011;39101;53.478;6.158;2022-10-16T09:31:15;10.60;;;2.50;;
51499;SDS011;39101;53.478;6.158;2022-10-16T09:33:44;12.25;;;2.83;;
51499;SDS011;39101;53.478;6.158;2022-10-16T09:38:40;11.02;;;2.55;;
51499;SDS011;39101;53.478;6.158;2022-10-16T09:41:19;13.23;;;2.50;;
51499;SDS011;39101;53.478;6.158;2022-10-16T09:43:52;16.75;;;4.25;;
51499;SDS011;39101;53.478;6.158;2022-10-16T09:48:57;15.82;;;3.80;;
51499;SDS011;39101;53.478;6.158;2022-10-16T09:51:31;16.20;;;3.78;;
51499;SDS011;39101;53.478;6.158;2022-10-16T09:54:12;12.55;;;2.50;;
51499;SDS011;39101;53.478;6.158;2022-10-16T09:56:43;14.52;;;2.65;;
51499;SDS011;39101;53.478;6.158;2022-10-16T09:59:12;14.70;;;2.47;;
51499;SDS011;39101;53.478;6.158;2022-10-16T10:01:47;13.65;;;2.25;;
51499;SDS011;39101;53.478;6.158;2022-10-16T10:04:13;19.13;;;2.58;;
51499;SDS011;39101;53.478;6.158;2022-10-16T10:09:20;20.58;;;3.65;;
51499;SDS011;39101;53.478;6.158;2022-10-16T10:14:24;13.50;;;3.63;;
51499;SDS011;39101;53.478;6.158;2022-10-16T10:17:44;17.55;;;3.30;;
51499;SDS011;39101;53.478;6.158;2022-10-16T10:19:52;18.67;;;3.47;;
51499;SDS011;39101;53.478;6.158;2022-10-16T10:33:33;14.73;;;3.38;;
51499;SDS011;39101;53.478;6.158;2022-10-16T10:38:51;20.52;;;4.07;;
51499;SDS011;39101;53.478;6.158;2022-10-16T10:50:38;15.70;;;3.40;;
51499;SDS011;39101;53.478;6.158;2022-10-16T10:53:32;19.27;;;3.05;;
51499;SDS011;39101;53.478;6.158;2022-10-16T11:11:27;19.38;;;3.25;;
51499;SDS011;39101;53.478;6.158;2022-10-16T11:13:47;18.42;;;3.15;;
51499;SDS011;39101;53.478;6.158;2022-10-16T11:16:20;19.35;;;4.07;;
51499;SDS011;39101;53.478;6.158;2022-10-16T11:27:49;15.15;;;3.03;;
51499;SDS011;39101;53.478;6.158;2022-10-16T11:30:22;18.30;;;3.50;;
51499;SDS011;39101;53.478;6.158;2022-10-16T11:33:02;17.88;;;4.00;;
51499;SDS011;39101;53.478;6.158;2022-10-16T11:36:00;27.67;;;4.20;;
51499;SDS011;39101;53.478;6.158;2022-10-16T11:41:27;21.38;;;3.17;;
51499;SDS011;39101;53.478;6.158;2022-10-16T11:49:49;13.07;;;3.17;;
51499;SDS011;39101;53.478;6.158;2022-10-16T11:52:36;13.35;;;3.00;;
51499;SDS011;39101;53.478;6.158;2022-10-16T11:57:49;16.63;;;3.35;;
51499;SDS011;39101;53.478;6.158;2022-10-16T12:00:29;17.73;;;3.47;;
51499;SDS011;39101;53.478;6.158;2022-10-16T12:08:44;19.98;;;3.13;;
51499;SDS011;39101;53.478;6.158;2022-10-16T12:13:51;19.73;;;3.70;;
51499;SDS011;39101;53.478;6.158;2022-10-16T12:16:28;15.13;;;3.15;;
51499;SDS011;39101;53.478;6.158;2022-10-16T12:19:10;18.98;;;3.65;;
51499;SDS011;39101;53.478;6.158;2022-10-16T12:21:38;19.23;;;3.33;;
51499;SDS011;39101;53.478;6.158;2022-10-16T12:24:04;16.48;;;2.80;;
51499;SDS011;39101;53.478;6.158;2022-10-16T12:26:36;14.85;;;3.13;;
51499;SDS011;39101;53.478;6.158;2022-10-16T12:31:55;12.85;;;3.03;;
51499;SDS011;39101;53.478;6.158;2022-10-16T12:34:37;13.57;;;2.95;;
51499;SDS011;39101;53.478;6.158;2022-10-16T12:37:10;15.13;;;3.17;;
51499;SDS011;39101;53.478;6.158;2022-10-16T12:39:36;18.50;;;2.63;;
51499;SDS011;39101;53.478;6.158;2022-10-16T12:42:19;14.73;;;3.33;;
51499;SDS011;39101;53.478;6.158;2022-10-16T12:44:56;15.90;;;2.75;;
51499;SDS011;39101;53.478;6.158;2022-10-16T12:49:57;12.20;;;3.00;;
51499;SDS011;39101;53.478;6.158;2022-10-16T12:52:27;16.75;;;2.97;;
51499;SDS011;39101;53.478;6.158;2022-10-16T12:54:59;11.45;;;2.40;;
51499;SDS011;39101;53.478;6.158;2022-10-16T12:59:53;13.95;;;2.55;;
51499;SDS011;39101;53.478;6.158;2022-10-16T13:13:23;15.35;;;2.58;;
51499;SDS011;39101;53.478;6.158;2022-10-16T13:19:27;12.07;;;2.30;;
51499;SDS011;39101;53.478;6.158;2022-10-16T13:24:20;13.60;;;2.55;;
51499;SDS011;39101;53.478;6.158;2022-10-16T13:29:38;19.77;;;2.90;;
51499;SDS011;39101;53.478;6.158;2022-10-16T13:32:07;17.23;;;2.40;;
51499;SDS011;39101;53.478;6.158;2022-10-16T13:34:46;16.42;;;2.97;;
51499;SDS011;39101;53.478;6.158;2022-10-16T13:37:32;12.65;;;2.25;;
51499;SDS011;39101;53.478;6.158;2022-10-16T13:42:52;17.13;;;3.17;;
51499;SDS011;39101;53.478;6.158;2022-10-16T13:45:23;13.88;;;2.67;;
51499;SDS011;39101;53.478;6.158;2022-10-16T13:48:03;14.35;;;2.83;;
51499;SDS011;39101;53.478;6.158;2022-10-16T13:50:34;15.63;;;2.75;;
51499;SDS011;39101;53.478;6.158;2022-10-16T13:53:04;12.15;;;2.30;;
51499;SDS011;39101;53.478;6.158;2022-10-16T13:55:31;10.32;;;2.17;;
51499;SDS011;39101;53.478;6.158;2022-10-16T13:58:13;14.85;;;3.33;;
51499;SDS011;39101;53.478;6.158;2022-10-16T14:00:39;17.98;;;3.90;;
51499;SDS011;39101;53.478;6.158;2022-10-16T14:03:18;16.55;;;2.50;;
51499;SDS011;39101;53.478;6.158;2022-10-16T14:05:49;10.43;;;2.22;;
51499;SDS011;39101;53.478;6.158;2022-10-16T14:08:17;13.95;;;2.55;;
51499;SDS011;39101;53.478;6.158;2022-10-16T14:10:47;11.95;;;2.47;;
51499;SDS011;39101;53.478;6.158;2022-10-16T14:13:19;10.52;;;2.05;;
51499;SDS011;39101;53.478;6.158;2022-10-16T14:15:49;12.18;;;2.83;;
51499;SDS011;39101;53.478;6.158;2022-10-16T14:18:20;14.55;;;2.00;;
51499;SDS011;39101;53.478;6.158;2022-10-16T14:20:48;13.07;;;2.33;;
51499;SDS011;39101;53.478;6.158;2022-10-16T14:23:22;9.98;;;2.30;;
51499;SDS011;39101;53.478;6.158;2022-10-16T14:28:31;14.27;;;2.05;;
51499;SDS011;39101;53.478;6.158;2022-10-16T14:30:57;10.93;;;2.03;;
51499;SDS011;39101;53.478;6.158;2022-10-16T14:36:01;13.68;;;2.25;;
51499;SDS011;39101;53.478;6.158;2022-10-16T14:38:33;10.32;;;1.75;;
51499;SDS011;39101;53.478;6.158;2022-10-16T14:40:59;13.35;;;2.38;;
51499;SDS011;39101;53.478;6.158;2022-10-16T14:43:29;12.73;;;2.35;;
51499;SDS011;39101;53.478;6.158;2022-10-16T14:45:56;11.88;;;2.42;;
51499;SDS011;39101;53.478;6.158;2022-10-16T14:48:22;13.40;;;2.92;;
51499;SDS011;39101;53.478;6.158;2022-10-16T14:50:48;16.48;;;3.40;;
51499;SDS011;39101;53.478;6.158;2022-10-16T14:53:15;14.98;;;3.05;;
51499;SDS011;39101;53.478;6.158;2022-10-16T14:55:41;13.45;;;2.47;;
51499;SDS011;39101;53.478;6.158;2022-10-16T14:58:13;11.30;;;2.20;;
51499;SDS011;39101;53.478;6.158;2022-10-16T15:00:45;15.20;;;3.05;;
51499;SDS011;39101;53.478;6.158;2022-10-16T15:03:11;14.90;;;2.75;;
51499;SDS011;39101;53.478;6.158;2022-10-16T15:05:36;14.25;;;2.53;;
51499;SDS011;39101;53.478;6.158;2022-10-16T15:08:02;15.80;;;1.92;;
51499;SDS011;39101;53.478;6.158;2022-10-16T15:10:29;16.88;;;2.15;;
51499;SDS011;39101;53.478;6.158;2022-10-16T15:12:57;9.40;;;2.05;;
51499;SDS011;39101;53.478;6.158;2022-10-16T15:17:52;10.85;;;2.63;;
51499;SDS011;39101;53.478;6.158;2022-10-16T15:20:21;12.25;;;1.67;;
51499;SDS011;39101;53.478;6.158;2022-10-16T15:22:50;10.75;;;1.85;;
51499;SDS011;39101;53.478;6.158;2022-10-16T15:28:12;15.20;;;2.60;;
51499;SDS011;39101;53.478;6.158;2022-10-16T15:30:38;13.07;;;2.28;;
51499;SDS011;39101;53.478;6.158;2022-10-16T15:33:05;14.30;;;2.53;;
51499;SDS011;39101;53.478;6.158;2022-10-16T15:35:42;13.27;;;2.35;;
51499;SDS011;39101;53.478;6.158;2022-10-16T15:38:11;11.48;;;2.28;;
51499;SDS011;39101;53.478;6.158;2022-10-16T15:40:38;17.38;;;3.25;;
51499;SDS011;39101;53.478;6.158;2022-10-16T15:43:04;13.90;;;2.00;;
51499;SDS011;39101;53.478;6.158;2022-10-16T15:45:30;16.02;;;2.25;;
51499;SDS011;39101;53.478;6.158;2022-10-16T15:47:57;12.40;;;1.85;;
51499;SDS011;39101;53.478;6.158;2022-10-16T15:50:22;17.27;;;3.25;;
51499;SDS011;39101;53.478;6.158;2022-10-16T15:52:49;8.63;;;1.65;;
51499;SDS011;39101;53.478;6.158;2022-10-16T15:55:15;12.63;;;2.17;;
51499;SDS011;39101;53.478;6.158;2022-10-16T15:57:42;9.75;;;2.95;;
51499;SDS011;39101;53.478;6.158;2022-10-16T16:00:13;10.00;;;3.35;;
51499;SDS011;39101;53.478;6.158;2022-10-16T16:02:41;17.42;;;4.03;;
51499;SDS011;39101;53.478;6.158;2022-10-16T16:05:08;10.88;;;2.47;;
51499;SDS011;39101;53.478;6.158;2022-10-16T16:07:36;12.88;;;2.25;;
51499;SDS011;39101;53.478;6.158;2022-10-16T16:10:03;19.15;;;3.20;;
51499;SDS011;39101;53.478;6.158;2022-10-16T16:12:30;13.30;;;2.28;;
51499;SDS011;39101;53.478;6.158;2022-10-16T16:14:56;11.63;;;2.17;;
51499;SDS011;39101;53.478;6.158;2022-10-16T16:17:21;15.32;;;2.00;;
51499;SDS011;39101;53.478;6.158;2022-10-16T16:19:47;11.27;;;2.28;;
51499;SDS011;39101;53.478;6.158;2022-10-16T16:22:13;10.75;;;2.05;;
51499;SDS011;39101;53.478;6.158;2022-10-16T16:24:38;13.38;;;2.55;;
51499;SDS011;39101;53.478;6.158;2022-10-16T16:27:04;11.88;;;2.45;;
51499;SDS011;39101;53.478;6.158;2022-10-16T16:29:30;15.10;;;2.40;;
51499;SDS011;39101;53.478;6.158;2022-10-16T16:31:55;8.07;;;2.05;;
51499;SDS011;39101;53.478;6.158;2022-10-16T16:34:26;10.23;;;2.03;;
51499;SDS011;39101;53.478;6.158;2022-10-16T16:36:53;13.07;;;2.10;;
51499;SDS011;39101;53.478;6.158;2022-10-16T16:39:19;10.20;;;2.20;;
51499;SDS011;39101;53.478;6.158;2022-10-16T16:41:45;13.20;;;2.42;;
51499;SDS011;39101;53.478;6.158;2022-10-16T16:44:13;10.15;;;2.60;;
51499;SDS011;39101;53.478;6.158;2022-10-16T16:46:39;10.25;;;1.98;;
51499;SDS011;39101;53.478;6.158;2022-10-16T16:49:08;11.95;;;1.92;;
51499;SDS011;39101;53.478;6.158;2022-10-16T16:51:35;10.05;;;2.28;;
51499;SDS011;39101;53.478;6.158;2022-10-16T16:54:01;19.02;;;6.72;;
51499;SDS011;39101;53.478;6.158;2022-10-16T16:56:27;32.65;;;12.38;;
51499;SDS011;39101;53.478;6.158;2022-10-16T16:58:53;26.27;;;11.57;;
51499;SDS011;39101;53.478;6.158;2022-10-16T17:01:20;18.50;;;7.65;;
51499;SDS011;39101;53.478;6.158;2022-10-16T17:03:49;24.25;;;9.20;;
51499;SDS011;39101;53.478;6.158;2022-10-16T17:06:17;21.73;;;6.65;;
51499;SDS011;39101;53.478;6.158;2022-10-16T17:08:44;18.92;;;4.78;;
51499;SDS011;39101;53.478;6.158;2022-10-16T17:11:13;17.00;;;5.53;;
51499;SDS011;39101;53.478;6.158;2022-10-16T17:13:41;16.08;;;4.63;;
51499;SDS011;39101;53.478;6.158;2022-10-16T17:16:07;21.52;;;4.88;;
51499;SDS011;39101;53.478;6.158;2022-10-16T17:18:33;9.60;;;4.38;;
51499;SDS011;39101;53.478;6.158;2022-10-16T17:21:00;12.80;;;3.17;;
51499;SDS011;39101;53.478;6.158;2022-10-16T17:23:28;11.05;;;3.42;;
51499;SDS011;39101;53.478;6.158;2022-10-16T17:25:53;10.73;;;2.55;;
51499;SDS011;39101;53.478;6.158;2022-10-16T17:28:19;10.27;;;1.85;;